Terminal Aerodrome Forecast
Issued by NWS

Home | Current Version | Previous Version | Text Only | Print | Product List | Glossary On
Versions: 1 2 3 4 5 6 7 8 9 10 11 12 13 14 15
000
FTUS43 KILX 201100
TAFCMI
TAF
KCMI 201130Z 2012/2112 20007KT P6SM BKN250
     FM201700 22015KT P6SM SCT060 BKN250
     FM201900 24014G22KT P6SM VCTS SCT040CB OVC050
      TEMPO 2020/2023 4SM TSRA BKN035CB
     FM210000 23007KT P6SM SCT035
     FM210500 26005KT 5SM BR SKC=

USA.gov is the U.S. government's official web portal to all federal, state and local government web resources and services.